Time;durP1;ratioP1;P1;durP2;ratioP2;P2;SDS_P1;SDS_P2;PMS_P1;PMS_P2;Temp;Humidity;BMP_temperature;BMP_pressure;BME280_temperature;BME280_humidity;BME280_pressure;Samples;Min_cycle;Max_cycle;Signal;HPM_P1;HPM_P2
2023/07/09 00:01:19;;;;;;;4.82;1.85;;;;;;;25.78;38.71;100999.94;5073744;28;20028;-48
2023/07/09 00:03:51;;;;;;;5.50;2.28;;;;;;;25.87;38.96;100997.28;5055997;28;20487;-47
2023/07/09 00:06:18;;;;;;;4.80;2.10;;;;;;;25.72;38.13;100996.44;5072056;28;20063;-46
2023/07/09 00:08:47;;;;;;;6.28;2.08;;;;;;;25.65;38.28;100992.47;5066833;28;20486;-47
2023/07/09 00:11:15;;;;;;;4.10;1.52;;;;;;;25.80;38.89;100995.75;5059124;28;20058;-51
2023/07/09 00:13:42;;;;;;;3.65;2.20;;;;;;;25.94;37.91;100986.72;5064683;28;20036;-55
2023/07/09 00:16:16;;;;;;;3.97;2.40;;;;;;;25.60;38.65;100981.63;5072956;28;20028;-52
2023/07/09 00:18:43;;;;;;;3.65;1.60;;;;;;;25.19;38.92;100976.88;5068553;28;20031;-52
2023/07/09 00:21:09;;;;;;;4.85;1.73;;;;;;;25.30;39.07;100983.78;5073496;28;20505;-50
2023/07/09 00:23:38;;;;;;;5.30;1.80;;;;;;;24.86;39.92;100981.50;5059725;28;20052;-51
2023/07/09 00:26:13;;;;;;;7.78;2.08;;;;;;;24.16;39.69;100977.56;5051012;28;20390;-52
2023/07/09 00:28:40;;;;;;;4.35;1.75;;;;;;;23.84;41.78;100986.44;5050463;28;20386;-49
2023/07/09 00:31:13;;;;;;;4.93;2.10;;;;;;;23.72;42.09;100979.75;5053203;28;20056;-53
2023/07/09 00:33:39;;;;;;;7.55;3.92;;;;;;;23.72;41.92;100974.28;5053100;28;20036;-53
2023/07/09 00:36:17;;;;;;;9.25;3.42;;;;;;;23.57;42.40;100984.25;5050785;28;20048;-52
2023/07/09 00:38:47;;;;;;;6.72;1.70;;;;;;;22.94;43.44;100980.75;5053405;28;20473;-49
2023/07/09 00:41:19;;;;;;;10.13;5.07;;;;;;;23.16;43.27;100984.66;5046067;28;20023;-49
2023/07/09 00:43:47;;;;;;;5.70;2.08;;;;;;;22.72;45.27;100975.69;5033097;28;20026;-47
2023/07/09 00:46:16;;;;;;;4.40;1.67;;;;;;;22.69;44.88;100971.59;5033001;28;20101;-48
2023/07/09 00:48:45;;;;;;;5.20;1.60;;;;;;;22.59;44.28;100968.94;5033422;28;20030;-47
2023/07/09 00:51:15;;;;;;;8.15;2.00;;;;;;;22.35;45.09;100985.19;5051448;28;20029;-47
2023/07/09 00:53:47;;;;;;;4.70;1.77;;;;;;;22.62;46.01;100979.28;5052131;28;20090;-47
2023/07/09 00:56:28;;;;;;;8.38;2.05;;;;;;;22.07;46.31;100976.56;5047543;28;20032;-51
2023/07/09 00:59:00;;;;;;;7.72;2.20;;;;;;;22.38;45.77;100977.28;5075625;23;20109;-46
2023/07/09 01:01:27;;;;;;;5.75;1.85;;;;;;;22.10;45.33;100977.97;5072364;28;20046;-46
2023/07/09 01:03:59;;;;;;;5.30;2.00;;;;;;;22.07;46.73;100983.94;5072636;28;20043;-49
2023/07/09 01:06:52;;;;;;;7.97;2.15;;;;;;;21.92;46.80;100978.53;5072686;28;20074;-46
2023/07/09 01:09:19;;;;;;;5.10;1.95;;;;;;;21.99;45.94;100976.34;5072510;28;20501;-48
2023/07/09 01:11:45;;;;;;;5.60;1.70;;;;;;;21.29;47.17;100979.78;5072988;28;20121;-48
2023/07/09 01:14:16;;;;;;;5.40;1.73;;;;;;;21.50;46.79;100985.19;5072811;28;20124;-49
2023/07/09 01:17:09;;;;;;;5.38;1.73;;;;;;;21.37;47.54;100980.31;5072829;28;20375;-46
2023/07/09 01:19:43;;;;;;;6.28;2.05;;;;;;;20.94;47.69;100985.22;5072830;28;20482;-49
2023/07/09 01:22:15;;;;;;;6.60;2.25;;;;;;;20.90;47.57;100986.84;5072829;28;20078;-50
2023/07/09 01:24:55;;;;;;;7.47;2.00;;;;;;;21.05;47.62;100995.00;5086627;28;20061;-51
2023/07/09 01:27:28;;;;;;;7.15;2.05;;;;;;;20.49;48.58;100998.47;5072653;28;20055;-51
2023/07/09 01:29:56;;;;;;;5.10;1.67;;;;;;;20.73;48.75;100987.09;5080260;28;20051;-48
2023/07/09 01:32:22;;;;;;;5.78;1.95;;;;;;;20.77;49.44;100988.19;5092755;28;20042;-50
2023/07/09 01:34:52;;;;;;;6.55;1.65;;;;;;;20.92;48.99;100984.66;5092308;28;20362;-49
2023/07/09 01:37:24;;;;;;;5.78;1.50;;;;;;;20.97;48.81;100987.38;5092508;28;20373;-49
2023/07/09 01:39:52;;;;;;;5.47;2.10;;;;;;;20.87;48.79;100993.63;5074190;28;20489;-48
2023/07/09 01:42:21;;;;;;;8.48;1.83;;;;;;;20.91;48.53;100999.34;5083059;28;20024;-47
2023/07/09 01:44:50;;;;;;;5.57;1.70;;;;;;;21.20;48.33;100994.97;5074293;28;20494;-47
2023/07/09 01:47:17;;;;;;;4.57;1.67;;;;;;;21.26;47.98;100991.16;5071439;28;20024;-49
2023/07/09 01:49:46;;;;;;;5.13;1.90;;;;;;;21.21;47.67;100993.91;5072156;28;20038;-48
2023/07/09 01:52:14;;;;;;;5.95;1.40;;;;;;;21.38;48.76;100998.25;5071669;28;20055;-47
2023/07/09 01:54:40;;;;;;;3.13;1.55;;;;;;;21.60;48.43;100996.06;5071375;28;20016;-48
2023/07/09 01:57:22;;;;;;;7.05;2.03;;;;;;;21.74;46.67;100999.84;5072772;28;20089;-50
2023/07/09 01:59:54;;;;;;;5.47;1.58;;;;;;;21.87;47.16;100991.06;5091687;28;20119;-48
2023/07/09 02:02:22;;;;;;;4.00;1.50;;;;;;;22.05;45.99;100994.31;5088697;28;20039;-46
2023/07/09 02:04:51;;;;;;;5.65;1.95;;;;;;;22.29;45.48;100998.03;5078105;28;20507;-46
2023/07/09 02:07:18;;;;;;;5.53;1.88;;;;;;;22.56;44.32;101004.97;5091773;28;20024;-50
2023/07/09 02:09:44;;;;;;;4.88;2.00;;;;;;;22.26;44.90;101001.31;5090757;28;20028;-50
2023/07/09 02:12:12;;;;;;;4.45;1.65;;;;;;;22.72;43.99;101005.72;5083390;28;20027;-48
2023/07/09 02:14:40;;;;;;;4.45;1.52;;;;;;;22.98;42.93;101000.88;5071543;28;20024;-46
2023/07/09 02:17:07;;;;;;;3.53;1.60;;;;;;;23.42;42.18;100998.84;5083658;28;20035;-49
2023/07/09 02:19:33;;;;;;;4.78;1.58;;;;;;;23.03;41.97;101000.84;5091651;28;20084;-49
2023/07/09 02:22:00;;;;;;;5.60;1.70;;;;;;;23.38;41.84;101007.94;5091827;28;20610;-49
2023/07/09 02:24:27;;;;;;;3.38;1.42;;;;;;;23.81;41.02;101006.13;5074050;28;20159;-48
2023/07/09 02:26:58;;;;;;;4.63;1.67;;;;;;;24.04;40.70;101009.16;5075385;28;20024;-51
2023/07/09 02:29:26;;;;;;;3.50;1.40;;;;;;;24.22;40.42;101011.13;5091341;28;20036;-46
2023/07/09 02:31:54;;;;;;;4.90;1.80;;;;;;;24.41;39.24;101012.00;5091723;28;20016;-46
2023/07/09 02:34:25;;;;;;;3.67;1.40;;;;;;;24.42;39.31;101010.06;5091698;28;20013;-49
2023/07/09 02:36:56;;;;;;;7.00;1.40;;;;;;;24.51;39.32;101013.78;5091779;28;20017;-50
2023/07/09 02:39:23;;;;;;;3.38;1.50;;;;;;;24.80;38.99;101015.53;5091799;28;20020;-48
2023/07/09 02:41:50;;;;;;;6.15;1.45;;;;;;;24.84;38.68;101014.66;5073764;28;20030;-47
2023/07/09 02:44:17;;;;;;;4.95;1.83;;;;;;;24.98;38.25;101020.19;5091527;28;20032;-49
2023/07/09 02:46:44;;;;;;;3.45;1.50;;;;;;;25.27;37.78;101028.25;5090984;28;20020;-47
2023/07/09 02:49:12;;;;;;;6.18;1.73;;;;;;;25.40;37.57;101029.38;5091881;28;20432;-57
2023/07/09 02:51:39;;;;;;;4.35;1.30;;;;;;;24.92;38.05;101030.41;5073918;28;20377;-48
2023/07/09 02:54:06;;;;;;;3.58;1.45;;;;;;;24.74;38.66;101033.97;5071016;28;20493;-47
2023/07/09 02:56:33;;;;;;;2.50;1.42;;;;;;;24.31;39.73;101030.44;5070848;28;20478;-46
2023/07/09 02:58:59;;;;;;;4.03;1.40;;;;;;;23.66;41.11;101022.72;5071019;28;20052;-49
2023/07/09 03:01:26;;;;;;;4.28;1.40;;;;;;;23.11;42.58;101022.91;5078293;28;20473;-46
2023/07/09 03:03:56;;;;;;;2.78;1.35;;;;;;;22.58;44.21;101022.69;5091016;28;20481;-45
2023/07/09 03:06:24;;;;;;;3.78;1.55;;;;;;;22.14;44.84;101022.63;5091051;28;20024;-46
2023/07/09 03:08:51;;;;;;;6.28;1.65;;;;;;;21.57;46.45;101027.38;5078111;28;20028;-45
2023/07/09 03:11:18;;;;;;;5.72;1.60;;;;;;;21.04;47.89;101026.84;5074272;28;20028;-46
2023/07/09 03:13:44;;;;;;;4.90;1.67;;;;;;;20.91;48.34;101023.84;5079581;28;20099;-46
2023/07/09 03:16:11;;;;;;;4.15;1.50;;;;;;;20.64;48.98;101038.47;5091998;28;20116;-47
2023/07/09 03:18:37;;;;;;;4.80;1.92;;;;;;;20.11;50.54;101034.19;5074484;28;20030;-46
2023/07/09 03:21:04;;;;;;;5.00;1.88;;;;;;;19.72;51.38;101042.66;5087063;28;20028;-48
2023/07/09 03:23:30;;;;;;;5.93;1.65;;;;;;;19.41;52.22;101033.44;5095006;28;20028;-47
2023/07/09 03:25:57;;;;;;;3.70;1.50;;;;;;;19.38;52.56;101032.06;5090529;23;20020;-45
2023/07/09 03:28:24;;;;;;;3.95;1.58;;;;;;;19.07;53.58;101043.75;5095038;28;20134;-45
2023/07/09 03:30:55;;;;;;;3.85;1.55;;;;;;;18.93;54.74;101048.75;5094847;28;20031;-45
2023/07/09 03:33:21;;;;;;;6.78;2.10;;;;;;;18.80;54.78;101038.31;5094945;28;20043;-46
2023/07/09 03:35:48;;;;;;;11.18;1.98;;;;;;;18.68;54.99;101043.91;5093744;28;20028;-45
2023/07/09 03:38:14;;;;;;;7.32;1.70;;;;;;;18.48;55.76;101039.84;5079782;28;20016;-45
2023/07/09 03:40:40;;;;;;;6.07;1.58;;;;;;;18.32;55.94;101050.75;5088838;28;20486;-46
2023/07/09 03:43:08;;;;;;;5.53;1.90;;;;;;;17.84;56.95;101047.69;5076430;28;20446;-48
2023/07/09 03:45:36;;;;;;;6.00;1.90;;;;;;;17.87;57.34;101054.50;5084388;28;20070;-46
2023/07/09 03:48:03;;;;;;;4.95;1.92;;;;;;;17.62;58.78;101058.44;5073882;28;20226;-45
2023/07/09 03:50:30;;;;;;;5.28;1.85;;;;;;;17.58;58.80;101061.88;5074037;28;20070;-48
2023/07/09 03:52:56;;;;;;;4.72;2.00;;;;;;;17.37;59.41;101053.44;5073959;28;20723;-47
2023/07/09 03:55:26;;;;;;;5.93;1.98;;;;;;;17.14;60.32;101059.00;5073787;28;20078;-50
2023/07/09 03:57:54;;;;;;;6.93;1.88;;;;;;;16.98;60.97;101052.50;5073962;28;20016;-45
2023/07/09 04:00:20;;;;;;;3.55;1.60;;;;;;;16.68;62.02;101057.31;5077120;28;20020;-46
2023/07/09 04:02:47;;;;;;;4.40;1.70;;;;;;;16.60;62.28;101056.66;5093918;28;20024;-48
2023/07/09 04:05:14;;;;;;;5.90;1.58;;;;;;;16.62;62.38;101054.53;5093865;28;20093;-47
2023/07/09 04:07:40;;;;;;;4.18;1.70;;;;;;;16.70;62.33;101066.00;5088897;28;20444;-43
2023/07/09 04:10:07;;;;;;;5.22;1.83;;;;;;;16.48;62.76;101068.53;5088748;28;20039;-47
2023/07/09 04:12:34;;;;;;;8.43;2.53;;;;;;;16.20;63.66;101062.03;5093680;28;20504;-49
2023/07/09 04:15:00;;;;;;;7.40;1.90;;;;;;;16.35;63.54;101070.47;5068488;28;20032;-46
2023/07/09 04:17:30;;;;;;;7.57;1.88;;;;;;;16.27;64.36;101061.91;5072137;28;20364;-49
2023/07/09 04:19:56;;;;;;;7.25;2.58;;;;;;;16.23;64.32;101063.44;5082854;28;20040;-48
2023/07/09 04:22:22;;;;;;;3.83;1.75;;;;;;;16.05;65.12;101070.63;5091096;28;20048;-45
2023/07/09 04:24:49;;;;;;;7.03;2.33;;;;;;;16.18;64.58;101068.75;5092879;28;20020;-45
2023/07/09 04:27:16;;;;;;;6.18;1.80;;;;;;;16.13;65.12;101071.31;5092863;28;20043;-47
2023/07/09 04:29:42;;;;;;;6.13;1.92;;;;;;;15.95;65.39;101075.81;5093374;28;20031;-45
2023/07/09 04:32:13;;;;;;;4.60;1.90;;;;;;;15.87;65.58;101078.84;5082726;28;20020;-48
2023/07/09 04:34:39;;;;;;;5.13;1.77;;;;;;;15.94;65.34;101079.56;5073337;28;20052;-47
2023/07/09 04:37:11;;;;;;;3.63;1.63;;;;;;;15.91;65.72;101077.31;5092613;28;20115;-46
2023/07/09 04:39:38;;;;;;;5.78;2.00;;;;;;;15.87;65.82;101084.25;5080089;28;20028;-44
2023/07/09 04:42:06;;;;;;;5.68;1.85;;;;;;;15.75;65.75;101086.13;5092034;28;20028;-45
2023/07/09 04:44:32;;;;;;;4.45;2.00;;;;;;;15.58;66.18;101085.97;5091627;28;20128;-45
2023/07/09 04:46:59;;;;;;;7.65;1.90;;;;;;;15.54;66.77;101091.00;5088001;28;20081;-44
2023/07/09 04:49:25;;;;;;;8.80;2.00;;;;;;;15.52;67.13;101090.41;5073603;28;20417;-45
2023/07/09 04:51:51;;;;;;;4.47;1.85;;;;;;;15.38;67.52;101097.09;5085354;28;20034;-43
2023/07/09 04:54:17;;;;;;;8.55;2.10;;;;;;;15.28;67.71;101094.13;5093194;28;20492;-44
2023/07/09 04:56:44;;;;;;;6.72;2.13;;;;;;;15.07;68.72;101094.66;5093449;28;20024;-44
2023/07/09 04:59:12;;;;;;;4.68;1.70;;;;;;;14.93;69.69;101105.59;5093284;28;20029;-44
2023/07/09 05:01:38;;;;;;;5.80;1.65;;;;;;;14.99;69.42;101104.72;5093688;28;20058;-46
2023/07/09 05:04:04;;;;;;;9.25;2.20;;;;;;;15.01;69.52;101099.09;5080436;28;20032;-45
2023/07/09 05:06:31;;;;;;;9.35;2.05;;;;;;;14.92;69.91;101100.44;5072971;28;20093;-47
2023/07/09 05:08:57;;;;;;;5.50;2.00;;;;;;;14.95;69.77;101103.53;5072871;28;20054;-48
2023/07/09 05:11:23;;;;;;;6.00;2.35;;;;;;;15.04;69.57;101106.69;5072995;28;20502;-45
2023/07/09 05:13:49;;;;;;;6.05;1.67;;;;;;;15.11;69.49;101117.41;5073359;28;20039;-45
2023/07/09 05:16:16;;;;;;;5.85;2.30;;;;;;;15.21;69.28;101117.66;5073445;28;20094;-44
2023/07/09 05:18:44;;;;;;;8.10;2.08;;;;;;;15.21;69.45;101123.91;5082643;28;20035;-44
2023/07/09 05:21:11;;;;;;;3.10;1.77;;;;;;;15.25;69.05;101111.59;5091232;28;20461;-45
2023/07/09 05:23:37;;;;;;;4.25;1.55;;;;;;;15.33;69.02;101115.84;5091087;28;20504;-45
2023/07/09 05:26:04;;;;;;;6.43;2.05;;;;;;;15.41;68.82;101120.88;5092278;28;20474;-47
2023/07/09 05:28:36;;;;;;;5.43;1.92;;;;;;;15.44;68.48;101116.94;5091120;28;20028;-45
2023/07/09 05:31:05;;;;;;;4.78;1.65;;;;;;;15.49;68.25;101115.19;5079269;22;20421;-47
2023/07/09 05:33:31;;;;;;;5.20;2.17;;;;;;;15.59;68.53;101115.41;5055667;28;20032;-48
2023/07/09 05:35:58;;;;;;;6.03;1.85;;;;;;;15.61;68.45;101130.56;5055537;28;20020;-44
2023/07/09 05:38:24;;;;;;;5.68;1.83;;;;;;;15.64;68.27;101125.53;5072063;28;20028;-48
2023/07/09 05:41:02;;;;;;;6.97;2.00;;;;;;;15.71;68.27;101138.91;5072095;28;20035;-48
2023/07/09 05:43:29;;;;;;;6.10;2.10;;;;;;;15.66;68.30;101126.16;5071765;28;20470;-44
2023/07/09 05:45:56;;;;;;;3.75;1.80;;;;;;;15.45;69.24;101135.56;5071660;28;20493;-47
2023/07/09 05:48:22;;;;;;;5.60;1.58;;;;;;;15.44;69.39;101133.13;5071544;28;20039;-47
2023/07/09 05:50:53;;;;;;;8.00;2.30;;;;;;;15.52;69.28;101122.78;5071611;28;20490;-46
2023/07/09 05:53:19;;;;;;;5.13;1.90;;;;;;;15.44;69.15;101139.31;5070771;28;20429;-48
2023/07/09 05:55:46;;;;;;;3.50;1.88;;;;;;;15.46;69.67;101129.13;5071015;28;20032;-47
2023/07/09 05:58:12;;;;;;;5.35;1.80;;;;;;;15.70;68.46;101130.00;5071251;28;20036;-47
2023/07/09 06:00:41;;;;;;;4.85;1.90;;;;;;;15.25;69.59;101122.38;5071731;28;20112;-45
2023/07/09 06:03:07;;;;;;;5.40;1.45;;;;;;;14.89;71.19;101125.19;5071553;28;20028;-45
2023/07/09 06:05:34;;;;;;;5.10;1.70;;;;;;;15.16;70.10;101121.06;5056697;28;20032;-45
2023/07/09 06:08:00;;;;;;;6.72;2.10;;;;;;;15.23;69.38;101116.41;5051693;28;20108;-45
2023/07/09 06:10:26;;;;;;;10.00;2.15;;;;;;;15.20;69.62;101122.22;5070749;28;20137;-45
2023/07/09 06:12:53;;;;;;;3.75;1.60;;;;;;;15.16;69.96;101128.34;5071745;28;20024;-45
2023/07/09 06:15:22;;;;;;;6.97;2.13;;;;;;;15.07;70.02;101124.31;5071098;28;20052;-45
2023/07/09 06:17:48;;;;;;;4.65;1.88;;;;;;;14.87;70.74;101121.88;5071568;28;20028;-45
2023/07/09 06:20:14;;;;;;;4.90;1.80;;;;;;;14.79;71.81;101126.53;5071879;28;20028;-47
2023/07/09 06:22:40;;;;;;;3.70;1.52;;;;;;;14.77;71.73;101128.63;5071374;28;20460;-46
2023/07/09 06:25:07;;;;;;;8.05;2.10;;;;;;;14.87;71.66;101121.88;5071316;28;20161;-45
2023/07/09 06:27:33;;;;;;;4.30;1.80;;;;;;;14.90;71.92;101124.13;5071482;28;20102;-45
2023/07/09 06:29:59;;;;;;;5.65;1.80;;;;;;;14.83;71.83;101118.81;5071484;28;20048;-45
2023/07/09 06:32:25;;;;;;;4.22;1.52;;;;;;;14.75;71.35;101124.50;5070809;28;20032;-47
2023/07/09 06:34:52;;;;;;;4.75;1.33;;;;;;;14.68;70.52;101121.09;5071379;28;20475;-45
2023/07/09 06:37:18;;;;;;;4.50;1.80;;;;;;;14.57;70.87;101116.47;5071432;28;20024;-45
2023/07/09 06:39:44;;;;;;;3.47;1.50;;;;;;;14.62;70.30;101127.38;5071271;28;20025;-46
2023/07/09 06:42:11;;;;;;;2.85;1.52;;;;;;;14.78;69.45;101130.28;5071455;28;20035;-45
2023/07/09 06:44:37;;;;;;;3.17;1.50;;;;;;;14.77;69.21;101125.94;5071170;28;20099;-45
2023/07/09 06:47:03;;;;;;;3.97;1.45;;;;;;;14.81;69.48;101125.47;5073286;28;20117;-45
2023/07/09 06:49:29;;;;;;;4.13;1.38;;;;;;;14.69;69.54;101133.50;5075333;28;20024;-45
2023/07/09 06:51:56;;;;;;;3.03;1.23;;;;;;;14.62;69.78;101124.69;5075762;28;20028;-46
2023/07/09 06:54:22;;;;;;;3.33;1.55;;;;;;;14.78;69.45;101124.88;5059602;28;20048;-46
2023/07/09 06:56:48;;;;;;;2.15;1.20;;;;;;;14.76;69.17;101123.47;5053956;28;20414;-46
2023/07/09 06:59:14;;;;;;;3.55;1.40;;;;;;;14.67;69.83;101128.34;5055312;28;20029;-45
2023/07/09 07:01:40;;;;;;;3.40;1.70;;;;;;;14.76;69.70;101128.84;5070332;28;20124;-45
2023/07/09 07:04:07;;;;;;;3.63;1.50;;;;;;;14.77;69.47;101128.63;5072011;28;20029;-45
2023/07/09 07:06:33;;;;;;;4.93;1.38;;;;;;;14.56;70.12;101131.78;5055138;28;20029;-45
2023/07/09 07:08:59;;;;;;;3.22;1.40;;;;;;;14.53;70.01;101124.97;5064532;28;20094;-46
2023/07/09 07:11:29;;;;;;;4.40;1.38;;;;;;;14.46;70.37;101128.78;5074355;28;20024;-45
2023/07/09 07:13:56;;;;;;;3.03;1.35;;;;;;;14.34;70.40;101128.69;5074670;28;20040;-45
2023/07/09 07:16:22;;;;;;;2.97;1.27;;;;;;;14.36;70.67;101131.16;5074531;28;20036;-45
2023/07/09 07:18:48;;;;;;;3.83;1.38;;;;;;;14.36;70.65;101121.22;5074838;28;20016;-45
2023/07/09 07:21:14;;;;;;;2.72;1.38;;;;;;;14.25;71.05;101127.34;5074300;28;20191;-45
2023/07/09 07:23:40;;;;;;;4.05;1.38;;;;;;;14.42;70.44;101122.19;5057655;28;20379;-45
2023/07/09 07:26:07;;;;;;;3.35;1.88;;;;;;;14.45;70.23;101125.25;5056660;28;20099;-45
2023/07/09 07:28:35;;;;;;;2.20;1.40;;;;;;;14.47;70.25;101120.50;5074783;28;20081;-46
2023/07/09 07:31:10;;;;;;;2.28;1.27;;;;;;;14.39;70.52;101118.06;5074284;28;20044;-45
2023/07/09 07:33:40;;;;;;;2.70;1.20;;;;;;;14.44;70.24;101117.41;5074286;28;20040;-44
2023/07/09 07:36:07;;;;;;;2.33;1.10;;;;;;;14.59;69.67;101120.56;5074369;28;20029;-45
2023/07/09 07:38:33;;;;;;;3.50;1.10;;;;;;;14.57;69.81;101114.59;5068844;28;20017;-45
2023/07/09 07:41:00;;;;;;;4.47;1.20;;;;;;;14.72;69.39;101115.03;5054419;28;20382;-45
2023/07/09 07:43:27;;;;;;;2.10;1.20;;;;;;;14.70;69.53;101116.28;5054140;28;20021;-45
2023/07/09 07:45:53;;;;;;;3.65;1.10;;;;;;;14.64;69.73;101128.78;5054188;28;20498;-46
2023/07/09 07:48:19;;;;;;;1.75;1.10;;;;;;;14.79;69.63;101114.94;5054365;28;20044;-45
2023/07/09 07:50:47;;;;;;;3.00;1.33;;;;;;;14.67;70.23;101114.88;5054378;28;20668;-44
2023/07/09 07:53:15;;;;;;;3.83;1.38;;;;;;;14.55;70.50;101116.69;5054253;28;20076;-45
2023/07/09 07:55:42;;;;;;;4.65;1.50;;;;;;;14.63;70.87;101115.56;5053704;28;20364;-46
2023/07/09 07:58:13;;;;;;;4.00;1.83;;;;;;;14.77;70.96;101111.66;5052854;28;20052;-46
2023/07/09 08:00:40;;;;;;;4.15;1.48;;;;;;;14.79;70.26;101109.53;5053969;28;20356;-45
2023/07/09 08:03:06;;;;;;;1.88;1.33;;;;;;;14.67;71.47;101119.44;5053903;28;20040;-46
2023/07/09 08:05:33;;;;;;;4.50;1.67;;;;;;;14.79;71.49;101110.38;5053618;28;20029;-44
2023/07/09 08:07:59;;;;;;;4.03;1.85;;;;;;;14.91;71.05;101107.72;5053992;28;20032;-44
2023/07/09 08:10:25;;;;;;;4.63;2.38;;;;;;;14.77;71.69;101111.66;5053568;28;20032;-45
2023/07/09 08:12:56;;;;;;;4.45;2.10;;;;;;;14.85;71.69;101105.13;5053902;28;20574;-47
2023/07/09 08:15:23;;;;;;;4.28;2.30;;;;;;;14.79;71.85;101109.53;5061327;28;20032;-45
2023/07/09 08:17:50;;;;;;;6.45;2.30;;;;;;;14.81;71.69;101110.13;5073737;28;20066;-46
2023/07/09 08:20:16;;;;;;;5.97;2.90;;;;;;;14.90;71.41;101110.66;5073852;28;20032;-46
2023/07/09 08:22:43;;;;;;;3.72;1.58;;;;;;;14.77;70.95;101107.09;5073237;28;20494;-46
2023/07/09 08:25:10;;;;;;;5.03;1.13;;;;;;;14.82;69.82;101109.06;5073000;28;20074;-44
2023/07/09 08:27:36;;;;;;;3.17;1.23;;;;;;;14.79;68.81;101112.25;5072935;28;20073;-45
2023/07/09 08:30:03;;;;;;;3.88;1.10;;;;;;;14.79;69.04;101112.25;5072920;28;20129;-46
2023/07/09 08:32:29;;;;;;;3.22;1.30;;;;;;;14.50;69.29;101114.66;5073032;28;20037;-45
2023/07/09 08:34:55;;;;;;;4.03;1.10;;;;;;;14.41;69.62;101109.75;5072510;28;20470;-46
2023/07/09 08:37:21;;;;;;;2.08;1.20;;;;;;;14.29;70.20;101109.69;5053123;28;20114;-44
2023/07/09 08:39:48;;;;;;;3.13;0.90;;;;;;;14.35;69.66;101111.47;5059747;28;20029;-45
2023/07/09 08:42:31;;;;;;;3.10;0.80;;;;;;;14.22;70.39;101115.16;5073280;28;20025;-46
2023/07/09 08:45:26;;;;;;;4.22;1.00;;;;;;;14.22;70.32;101117.03;5072930;28;20025;-47
2023/07/09 08:48:28;;;;;;;2.90;1.10;;;;;;;14.15;70.64;101113.56;5050804;28;20394;-48
2023/07/09 08:51:15;;;;;;;3.05;1.10;;;;;;;14.02;70.86;101111.84;5073100;28;20063;-45
2023/07/09 08:53:56;;;;;;;3.85;1.17;;;;;;;13.98;71.13;101114.13;5052710;28;20067;-45
2023/07/09 08:56:24;;;;;;;3.88;1.10;;;;;;;13.88;71.36;101119.22;5052885;28;20025;-45
2023/07/09 08:58:53;;;;;;;1.80;1.00;;;;;;;13.89;71.40;101120.84;5052982;28;20025;-48
2023/07/09 09:01:41;;;;;;;2.40;0.88;;;;;;;13.92;70.99;101116.88;5052737;28;20044;-45
2023/07/09 09:04:24;;;;;;;5.05;1.10;;;;;;;13.74;72.11;101123.06;5052329;28;20368;-46
2023/07/09 09:07:05;;;;;;;6.95;1.63;;;;;;;13.70;72.20;101128.03;5052841;28;20025;-45
2023/07/09 09:09:45;;;;;;;1.92;0.90;;;;;;;13.70;72.20;101122.66;5052228;28;20024;-46
2023/07/09 09:12:17;;;;;;;2.20;0.80;;;;;;;13.66;72.32;101120.66;5052618;28;20025;-45
2023/07/09 09:14:49;;;;;;;2.60;1.00;;;;;;;13.77;72.15;101117.25;5052395;28;20032;-45
2023/07/09 09:17:19;;;;;;;2.50;1.00;;;;;;;13.80;71.87;101118.66;5052539;28;20032;-47
2023/07/09 09:20:00;;;;;;;2.60;0.90;;;;;;;13.84;71.29;101115.31;5052543;28;20109;-45
2023/07/09 09:22:41;;;;;;;2.67;1.10;;;;;;;13.85;71.60;101118.81;5052429;28;20037;-46
2023/07/09 09:25:16;;;;;;;2.38;1.05;;;;;;;13.72;72.29;101114.38;5052350;28;20028;-47
2023/07/09 09:27:43;;;;;;;3.35;1.30;;;;;;;13.80;72.04;101110.59;5053130;28;20064;-46
2023/07/09 09:30:21;;;;;;;3.42;1.00;;;;;;;13.67;72.60;101111.53;5072339;28;20565;-45
2023/07/09 09:32:54;;;;;;;3.17;1.20;;;;;;;13.72;72.45;101111.69;5072115;28;20055;-45
2023/07/09 09:35:25;;;;;;;6.38;1.08;;;;;;;13.83;72.61;101112.84;5071336;28;20028;-45
2023/07/09 09:37:54;;;;;;;2.65;1.30;;;;;;;13.79;73.29;101111.63;5069589;28;20032;-45
2023/07/09 09:40:24;;;;;;;3.00;1.08;;;;;;;13.57;73.92;101111.19;5071302;28;20055;-45
2023/07/09 09:42:53;;;;;;;2.40;1.30;;;;;;;13.66;73.35;101107.22;5072371;28;20033;-44
2023/07/09 09:45:24;;;;;;;2.92;1.02;;;;;;;13.60;73.25;101114.28;5065530;28;20395;-45
2023/07/09 09:47:51;;;;;;;2.47;1.05;;;;;;;13.58;73.20;101115.53;5063825;28;20059;-46
2023/07/09 09:50:19;;;;;;;3.22;0.93;;;;;;;13.60;72.78;101114.28;5071345;28;20432;-45
2023/07/09 09:52:48;;;;;;;3.83;1.17;;;;;;;13.76;72.46;101118.25;5069617;28;20027;-45
2023/07/09 09:55:24;;;;;;;2.40;0.90;;;;;;;13.67;72.38;101116.91;5070192;28;20024;-44
2023/07/09 09:57:53;;;;;;;1.55;0.93;;;;;;;13.72;72.41;101120.59;5072219;28;20028;-45
2023/07/09 10:00:24;;;;;;;2.45;1.05;;;;;;;13.67;72.58;101120.44;5072043;28;20032;-44
2023/07/09 10:02:57;;;;;;;1.52;0.90;;;;;;;13.74;72.19;101115.81;5071837;28;20064;-46
2023/07/09 10:05:34;;;;;;;2.88;0.88;;;;;;;13.74;72.20;101128.44;5070059;28;20028;-46
2023/07/09 10:08:07;;;;;;;1.25;0.95;;;;;;;13.71;72.42;101124.34;5071820;28;20056;-46
2023/07/09 10:10:33;;;;;;;2.42;1.25;;;;;;;13.86;72.53;101125.84;5071942;28;20032;-45
2023/07/09 10:13:27;;;;;;;4.55;1.27;;;;;;;13.68;73.76;101113.19;5071500;28;20054;-45
2023/07/09 10:16:17;;;;;;;4.40;1.50;;;;;;;13.99;72.96;101125.72;5062230;28;20102;-45
2023/07/09 10:19:19;;;;;;;2.13;1.30;;;;;;;13.93;73.34;101116.66;5071991;28;20275;-47
2023/07/09 10:21:58;;;;;;;2.72;1.20;;;;;;;14.06;72.79;101114.91;4964445;28;20027;-45
2023/07/09 10:24:57;;;;;;;4.70;1.30;;;;;;;13.93;73.35;101122.03;5042962;28;20123;-45
2023/07/09 10:27:45;;;;;;;4.22;1.02;;;;;;;13.90;72.65;101121.69;5066705;28;20029;-45
2023/07/09 10:30:29;;;;;;;2.78;1.13;;;;;;;13.96;71.70;101127.00;5063119;28;20041;-49
2023/07/09 10:33:14;;;;;;;3.33;0.73;;;;;;;13.67;72.49;101127.69;5055615;28;20024;-45
2023/07/09 10:36:02;;;;;;;2.83;1.00;;;;;;;13.63;72.44;101124.59;5070852;28;20112;-46
2023/07/09 10:39:09;;;;;;;2.08;0.80;;;;;;;13.70;72.51;101124.53;5056397;28;20036;-48
2023/07/09 10:41:38;;;;;;;1.17;0.77;;;;;;;13.58;73.22;101128.97;5064117;28;20416;-49
2023/07/09 10:44:16;;;;;;;3.65;1.23;;;;;;;13.43;73.89;101123.91;5052474;28;20032;-47
2023/07/09 10:46:47;;;;;;;3.70;0.88;;;;;;;13.54;73.53;101123.19;5071301;28;20036;-49
2023/07/09 10:49:17;;;;;;;2.30;0.85;;;;;;;13.64;72.92;101115.47;5071339;28;20123;-45
2023/07/09 10:52:00;;;;;;;2.30;0.60;;;;;;;13.61;73.28;101120.50;5071257;28;20095;-45
2023/07/09 10:54:37;;;;;;;2.00;0.75;;;;;;;13.70;72.54;101119.16;5071016;28;20032;-46
2023/07/09 10:57:14;;;;;;;1.52;0.90;;;;;;;13.81;71.82;101131.88;5063014;28;20014;-45
2023/07/09 10:59:43;;;;;;;1.92;0.80;;;;;;;13.67;72.37;101128.50;5050688;28;20486;-45
2023/07/09 11:02:19;;;;;;;2.58;0.77;;;;;;;13.46;72.79;101118.09;5051103;28;20029;-45
2023/07/09 11:05:02;;;;;;;1.60;0.70;;;;;;;13.45;72.94;101119.16;5050779;28;20482;-44
2023/07/09 11:07:36;;;;;;;5.22;1.20;;;;;;;13.31;73.61;101115.72;5051186;28;20533;-46
2023/07/09 11:10:25;;;;;;;2.35;0.70;;;;;;;13.46;72.88;101120.78;5050881;28;20036;-48
2023/07/09 11:13:02;;;;;;;1.58;0.88;;;;;;;13.42;72.83;101112.31;5050932;28;20047;-45
2023/07/09 11:15:39;;;;;;;1.15;0.60;;;;;;;13.24;74.01;101106.06;5050909;28;20091;-45
2023/07/09 11:18:07;;;;;;;1.98;0.65;;;;;;;13.30;74.09;101122.13;5055359;28;20113;-49
2023/07/09 11:20:37;;;;;;;2.28;1.08;;;;;;;13.47;73.67;101119.75;5054780;28;20037;-47
2023/07/09 11:23:17;;;;;;;2.53;0.95;;;;;;;13.46;74.13;101118.09;5051322;28;20555;-46
2023/07/09 11:25:46;;;;;;;1.98;0.73;;;;;;;13.46;74.29;101113.56;5051003;28;20021;-48
2023/07/09 11:28:14;;;;;;;3.30;1.00;;;;;;;13.78;72.88;101118.06;5051356;28;20064;-48
2023/07/09 11:30:52;;;;;;;3.40;0.85;;;;;;;13.86;72.34;101121.28;5051028;28;20458;-46
2023/07/09 11:33:27;;;;;;;2.08;0.77;;;;;;;13.71;72.67;101124.34;5052900;28;20028;-47
2023/07/09 11:36:05;;;;;;;;;;;;;;;13.75;72.48;101124.69;5055110;28;20131;-49
2023/07/09 11:38:46;;;;;;;1.33;0.80;;;;;;;13.67;72.96;101133.06;5054829;28;19908;-46